createdAt,value
2018-06-17T00:00:54.575Z,0
2018-06-17T00:01:54.299Z,0
2018-06-17T00:02:54.282Z,0
2018-06-17T00:03:54.537Z,0
2018-06-17T00:04:54.786Z,0
2018-06-17T00:05:54.507Z,0
2018-06-17T00:06:54.758Z,0
2018-06-17T00:07:54.497Z,0
2018-06-17T00:08:54.479Z,0
2018-06-17T00:09:54.476Z,0
2018-06-17T00:10:54.450Z,0
2018-06-17T00:11:54.720Z,0
2018-06-17T00:12:54.433Z,0
2018-06-17T00:13:54.467Z,0
2018-06-17T00:14:53.877Z,0
2018-06-17T00:15:54.415Z,0
2018-06-17T00:16:54.652Z,0
2018-06-17T00:17:54.643Z,0
2018-06-17T00:18:54.626Z,0
2018-06-17T00:19:54.873Z,0
2018-06-17T00:20:54.331Z,0
2018-06-17T00:21:54.333Z,0
2018-06-17T00:22:54.577Z,0
2018-06-17T00:23:54.609Z,0
2018-06-17T00:24:54.294Z,0
2018-06-17T00:25:54.008Z,0
2018-06-17T00:26:54.529Z,0
2018-06-17T00:27:53.735Z,0
2018-06-17T00:28:54.508Z,0
2018-06-17T00:29:54.500Z,0
2018-06-17T00:30:54.745Z,0
2018-06-17T00:31:54.477Z,0
2018-06-17T00:32:54.462Z,0
2018-06-17T00:33:54.710Z,0
2018-06-17T00:34:53.907Z,0
2018-06-17T00:35:53.636Z,0
2018-06-17T00:36:54.149Z,0
2018-06-17T00:37:53.877Z,0
2018-06-17T00:38:54.650Z,0
2018-06-17T00:39:54.108Z,0
2018-06-17T00:40:53.828Z,0
2018-06-17T00:41:54.348Z,0
2018-06-17T00:42:54.079Z,0
2018-06-17T00:43:54.066Z,0
2018-06-17T00:44:54.049Z,0
2018-06-17T00:45:54.047Z,0
2018-06-17T00:46:54.020Z,0
2018-06-17T00:47:54.325Z,0
2018-06-17T00:48:54.265Z,0
2018-06-17T00:49:53.725Z,0
2018-06-17T00:50:54.246Z,0
2018-06-17T00:51:53.975Z,0
2018-06-17T00:52:54.214Z,0
2018-06-17T00:53:54.463Z,0
2018-06-17T00:54:54.193Z,0
2018-06-17T00:55:53.933Z,0
2018-06-17T00:56:53.900Z,0
2018-06-17T00:57:54.155Z,0
2018-06-17T00:58:53.875Z,0
2018-06-17T00:59:54.131Z,0
2018-06-17T01:00:54.382Z,0
2018-06-17T01:01:54.106Z,0
2018-06-17T01:02:53.841Z,0
2018-06-17T01:03:53.807Z,0
2018-06-17T01:04:53.799Z,0
2018-06-17T01:05:53.791Z,0
2018-06-17T01:06:53.775Z,0
2018-06-17T01:07:53.774Z,0
2018-06-17T01:08:53.750Z,0
2018-06-17T01:09:54.208Z,0
2018-06-17T01:10:53.996Z,0
2018-06-17T01:11:53.195Z,0
2018-06-17T01:12:53.972Z,0
2018-06-17T01:13:53.952Z,0
2018-06-17T01:14:53.679Z,0
2018-06-17T01:15:54.186Z,0
2018-06-17T01:16:53.124Z,0
2018-06-17T01:17:53.632Z,0
2018-06-17T01:18:53.976Z,0
2018-06-17T01:19:53.872Z,0
2018-06-17T01:20:53.600Z,0
2018-06-17T01:21:53.847Z,0
2018-06-17T01:22:53.308Z,0
2018-06-17T01:23:53.829Z,0
2018-06-17T01:24:53.276Z,0
2018-06-17T01:25:53.821Z,0
2018-06-17T01:26:52.988Z,0
2018-06-17T01:27:53.781Z,0
2018-06-17T01:28:53.498Z,0
2018-06-17T01:29:53.490Z,0
2018-06-17T01:30:53.738Z,0
2018-06-17T01:31:53.538Z,0
2018-06-17T01:32:53.192Z,0
2018-06-17T01:33:53.987Z,0
2018-06-17T01:34:53.416Z,0
2018-06-17T01:35:53.937Z,0
2018-06-17T01:36:53.662Z,0
2018-06-17T01:37:53.386Z,0
2018-06-17T01:38:53.636Z,0
2018-06-17T01:39:53.625Z,0
2018-06-17T01:40:53.605Z,0
2018-06-17T01:41:53.334Z,0
2018-06-17T01:42:53.589Z,0
2018-06-17T01:43:53.038Z,0
2018-06-17T01:44:52.760Z,0
2018-06-17T01:45:53.285Z,0
2018-06-17T01:46:53.545Z,0
2018-06-17T01:47:53.254Z,0
2018-06-17T01:48:53.499Z,0
2018-06-17T01:49:53.484Z,0
2018-06-17T01:50:53.563Z,0
2018-06-17T01:51:52.674Z,0
2018-06-17T01:52:53.453Z,0
2018-06-17T01:53:53.431Z,0
2018-06-17T01:54:53.154Z,0
2018-06-17T01:55:52.883Z,0
2018-06-17T01:56:53.403Z,0
2018-06-17T01:57:53.396Z,0
2018-06-17T01:58:53.102Z,0
2018-06-17T01:59:53.356Z,0
2018-06-17T02:00:53.607Z,0
2018-06-17T02:01:53.594Z,0
2018-06-17T02:02:52.529Z,0
2018-06-17T02:03:53.295Z,0
2018-06-17T02:04:53.287Z,0
2018-06-17T02:05:53.011Z,0
2018-06-17T02:06:53.261Z,0
2018-06-17T02:07:53.249Z,0
2018-06-17T02:08:52.981Z,0
2018-06-17T02:09:53.220Z,0
2018-06-17T02:10:53.210Z,0
2018-06-17T02:11:52.713Z,0
2018-06-17T02:12:53.467Z,0
2018-06-17T02:13:52.954Z,0
2018-06-17T02:14:53.161Z,0
2018-06-17T02:15:52.889Z,0
2018-06-17T02:16:53.141Z,0
2018-06-17T02:17:53.375Z,0
2018-06-17T02:18:53.381Z,0
2018-06-17T02:19:53.090Z,0
2018-06-17T02:20:53.075Z,0
2018-06-17T02:21:52.811Z,0
2018-06-17T02:22:52.530Z,0
2018-06-17T02:23:52.513Z,0
2018-06-17T02:24:53.023Z,0
2018-06-17T02:25:53.010Z,0
2018-06-17T02:26:52.738Z,0
2018-06-17T02:27:52.729Z,0
2018-06-17T02:28:52.706Z,0
2018-06-17T02:29:53.218Z,0
2018-06-17T02:30:52.955Z,0
2018-06-17T02:31:52.406Z,0
2018-06-17T02:32:52.389Z,0
2018-06-17T02:33:52.638Z,0
2018-06-17T02:34:52.894Z,0
2018-06-17T02:35:52.663Z,0
2018-06-17T02:36:52.884Z,0
2018-06-17T02:37:52.848Z,0
2018-06-17T02:38:52.570Z,0
2018-06-17T02:39:52.827Z,0
2018-06-17T02:40:52.869Z,0
2018-06-17T02:41:52.791Z,0
2018-06-17T02:42:51.991Z,0
2018-06-17T02:43:52.784Z,0
2018-06-17T02:44:52.227Z,0
2018-06-17T02:45:52.771Z,0
2018-06-17T02:46:52.467Z,0
2018-06-17T02:47:53.054Z,0
2018-06-17T02:48:52.713Z,0
2018-06-17T02:49:52.165Z,0
2018-06-17T02:50:52.947Z,0
2018-06-17T02:51:52.402Z,0
2018-06-17T02:52:52.678Z,0
2018-06-17T02:53:52.115Z,0
2018-06-17T02:54:52.640Z,0
2018-06-17T02:55:52.088Z,0
2018-06-17T02:56:52.884Z,0
2018-06-17T02:57:52.067Z,0
2018-06-17T02:58:52.301Z,0
2018-06-17T02:59:52.555Z,0
2018-06-17T03:00:52.549Z,0
2018-06-17T03:01:52.531Z,0
2018-06-17T03:02:52.525Z,0
2018-06-17T03:03:52.750Z,0
2018-06-17T03:04:52.492Z,0
2018-06-17T03:05:52.477Z,0
2018-06-17T03:06:51.669Z,0
2018-06-17T03:07:52.463Z,0
2018-06-17T03:08:52.464Z,0
2018-06-17T03:09:52.090Z,0
2018-06-17T03:10:52.200Z,0
2018-06-17T03:11:52.452Z,0
2018-06-17T03:12:51.589Z,0
2018-06-17T03:13:52.699Z,0
2018-06-17T03:14:52.358Z,0
2018-06-17T03:15:52.352Z,0
2018-06-17T03:16:52.610Z,0
2018-06-17T03:17:52.053Z,5
2018-06-17T03:18:52.319Z,5
2018-06-17T03:19:52.550Z,5
2018-06-17T03:20:52.017Z,5
2018-06-17T03:21:52.297Z,5
2018-06-17T03:22:52.245Z,5
2018-06-17T03:23:51.717Z,5
2018-06-17T03:24:52.807Z,5
2018-06-17T03:25:51.678Z,5
2018-06-17T03:26:52.276Z,5
2018-06-17T03:27:52.462Z,10
2018-06-17T03:28:52.430Z,10
2018-06-17T03:29:52.420Z,10
2018-06-17T03:30:51.634Z,10
2018-06-17T03:31:52.144Z,10
2018-06-17T03:32:52.110Z,15
2018-06-17T03:33:52.371Z,15
2018-06-17T03:34:51.826Z,15
2018-06-17T03:35:52.350Z,15
2018-06-17T03:36:52.325Z,15
2018-06-17T03:37:51.784Z,15
2018-06-17T03:38:52.062Z,15
2018-06-17T03:39:51.763Z,15
2018-06-17T03:40:51.749Z,15
2018-06-17T03:41:52.004Z,15
2018-06-17T03:42:52.246Z,15
2018-06-17T03:43:51.713Z,15
2018-06-17T03:44:51.957Z,15
2018-06-17T03:45:51.685Z,15
2018-06-17T03:46:51.938Z,15
2018-06-17T03:47:51.780Z,15
2018-06-17T03:48:51.914Z,20
2018-06-17T03:49:51.889Z,20
2018-06-17T03:50:51.877Z,20
2018-06-17T03:51:51.874Z,20
2018-06-17T03:52:51.595Z,20
2018-06-17T03:53:51.046Z,20
2018-06-17T03:54:51.877Z,20
2018-06-17T03:55:51.806Z,25
2018-06-17T03:56:51.537Z,25
2018-06-17T03:57:51.839Z,25
2018-06-17T03:58:52.031Z,25
2018-06-17T03:59:51.498Z,25
2018-06-17T04:00:51.214Z,25
2018-06-17T04:01:51.477Z,30
2018-06-17T04:02:51.709Z,30
2018-06-17T04:03:51.709Z,25
2018-06-17T04:04:51.969Z,25
2018-06-17T04:05:51.676Z,25
2018-06-17T04:06:51.155Z,25
2018-06-17T04:07:51.143Z,25
2018-06-17T04:08:51.388Z,25
2018-06-17T04:09:51.631Z,30
2018-06-17T04:10:51.875Z,30
2018-06-17T04:11:51.342Z,30
2018-06-17T04:12:51.062Z,30
2018-06-17T04:13:50.780Z,30
2018-06-17T04:14:51.038Z,30
2018-06-17T04:15:51.014Z,30
2018-06-17T04:16:51.799Z,35
2018-06-17T04:17:51.254Z,35
2018-06-17T04:18:51.773Z,35
2018-06-17T04:19:51.501Z,35
2018-06-17T04:20:51.485Z,35
2018-06-17T04:21:50.943Z,35
2018-06-17T04:22:51.462Z,35
2018-06-17T04:23:50.916Z,35
2018-06-17T04:24:51.434Z,35
2018-06-17T04:25:51.325Z,35
2018-06-17T04:26:51.404Z,35
2018-06-17T04:27:51.712Z,40
2018-06-17T04:28:51.120Z,40
2018-06-17T04:29:51.629Z,40
2018-06-17T04:30:51.093Z,40
2018-06-17T04:31:51.075Z,40
2018-06-17T04:32:51.073Z,40
2018-06-17T04:33:51.048Z,40
2018-06-17T04:34:51.305Z,40
2018-06-17T04:35:51.286Z,40
2018-06-17T04:36:50.757Z,40
2018-06-17T04:37:51.259Z,45
2018-06-17T04:38:50.991Z,45
2018-06-17T04:39:50.711Z,45
2018-06-17T04:40:51.229Z,45
2018-06-17T04:41:50.942Z,50
2018-06-17T04:42:51.192Z,50
2018-06-17T04:43:50.923Z,55
2018-06-17T04:44:50.913Z,55
2018-06-17T04:45:51.219Z,55
2018-06-17T04:46:51.151Z,55
2018-06-17T04:47:50.610Z,55
2018-06-17T04:48:51.122Z,50
2018-06-17T04:49:50.848Z,55
2018-06-17T04:50:50.832Z,50
2018-06-17T04:51:51.348Z,50
2018-06-17T04:52:51.069Z,50
2018-06-17T04:53:50.798Z,50
2018-06-17T04:54:51.051Z,50
2018-06-17T04:55:51.044Z,45
2018-06-17T04:56:51.023Z,50
2018-06-17T04:57:50.213Z,55
2018-06-17T04:58:51.261Z,60
2018-06-17T04:59:50.189Z,65
2018-06-17T05:00:50.445Z,70
2018-06-17T05:01:50.964Z,60
2018-06-17T05:02:50.146Z,55
2018-06-17T05:03:50.398Z,55
2018-06-17T05:04:50.917Z,55
2018-06-17T05:05:50.968Z,50
2018-06-17T05:06:50.649Z,50
2018-06-17T05:07:50.879Z,50
2018-06-17T05:08:50.602Z,55
2018-06-17T05:09:51.202Z,55
2018-06-17T05:10:50.575Z,55
2018-06-17T05:11:50.316Z,50
2018-06-17T05:12:50.553Z,55
2018-06-17T05:13:50.538Z,55
2018-06-17T05:14:50.531Z,55
2018-06-17T05:15:50.774Z,60
2018-06-17T05:16:50.499Z,60
2018-06-17T05:17:50.767Z,55
2018-06-17T05:18:50.213Z,55
2018-06-17T05:19:50.460Z,55
2018-06-17T05:20:50.443Z,55
2018-06-17T05:21:50.701Z,60
2018-06-17T05:22:50.426Z,60
2018-06-17T05:23:50.675Z,60
2018-06-17T05:24:50.402Z,55
2018-06-17T05:25:50.912Z,55
2018-06-17T05:26:50.366Z,55
2018-06-17T05:27:50.358Z,50
2018-06-17T05:28:50.392Z,55
2018-06-17T05:29:50.856Z,55
2018-06-17T05:30:50.582Z,55
2018-06-17T05:31:50.047Z,60
2018-06-17T05:32:50.299Z,60
2018-06-17T05:33:51.127Z,65
2018-06-17T05:34:50.530Z,65
2018-06-17T05:35:50.270Z,65
2018-06-17T05:36:50.792Z,70
2018-06-17T05:37:50.538Z,70
2018-06-17T05:38:50.213Z,70
2018-06-17T05:39:49.937Z,70
2018-06-17T05:40:50.738Z,70
2018-06-17T05:41:50.183Z,70
2018-06-17T05:42:50.441Z,65
2018-06-17T05:43:50.430Z,65
2018-06-17T05:44:50.413Z,65
2018-06-17T05:45:50.400Z,65
2018-06-17T05:46:50.656Z,65
2018-06-17T05:47:50.118Z,65
2018-06-17T05:48:50.099Z,70
2018-06-17T05:49:50.361Z,65
2018-06-17T05:50:49.858Z,65
2018-06-17T05:51:50.057Z,65
2018-06-17T05:52:49.788Z,70
2018-06-17T05:53:49.772Z,75
2018-06-17T05:54:50.548Z,75
2018-06-17T05:55:50.221Z,75
2018-06-17T05:56:50.269Z,75
2018-06-17T05:57:50.508Z,75
2018-06-17T05:58:49.977Z,80
2018-06-17T05:59:49.961Z,80
2018-06-17T06:00:50.218Z,80
2018-06-17T06:01:50.252Z,80
2018-06-17T06:02:50.186Z,80
2018-06-17T06:03:50.181Z,80
2018-06-17T06:04:49.903Z,80
2018-06-17T06:05:49.635Z,80
2018-06-17T06:06:50.152Z,80
2018-06-17T06:07:50.140Z,80
2018-06-17T06:08:49.859Z,85
2018-06-17T06:09:49.580Z,85
2018-06-17T06:10:50.097Z,85
2018-06-17T06:11:49.812Z,85
2018-06-17T06:12:49.543Z,85
2018-06-17T06:13:49.794Z,90
2018-06-17T06:14:49.524Z,100
2018-06-17T06:15:50.032Z,200
2018-06-17T06:16:49.761Z,310
2018-06-17T06:17:50.280Z,250
2018-06-17T06:18:49.736Z,220
2018-06-17T06:19:49.731Z,590
2018-06-17T06:20:50.236Z,640
2018-06-17T06:21:50.242Z,425
2018-06-17T06:22:49.685Z,320
2018-06-17T06:23:49.938Z,335
2018-06-17T06:24:49.152Z,165
2018-06-17T06:25:49.657Z,115
2018-06-17T06:26:49.917Z,115
2018-06-17T06:27:49.895Z,110
2018-06-17T06:28:49.890Z,105
2018-06-17T06:29:49.890Z,105
2018-06-17T06:30:49.861Z,105
2018-06-17T06:31:49.859Z,100
2018-06-17T06:32:50.125Z,100
2018-06-17T06:33:50.095Z,105
2018-06-17T06:34:49.812Z,105
2018-06-17T06:35:49.547Z,105
2018-06-17T06:36:49.802Z,110
2018-06-17T06:37:49.543Z,105
2018-06-17T06:38:49.514Z,110
2018-06-17T06:39:49.504Z,110
2018-06-17T06:40:49.497Z,115
2018-06-17T06:41:49.746Z,120
2018-06-17T06:42:49.474Z,120
2018-06-17T06:43:49.724Z,125
2018-06-17T06:44:49.453Z,125
2018-06-17T06:45:49.919Z,195
2018-06-17T06:46:49.437Z,450
2018-06-17T06:47:49.408Z,760
2018-06-17T06:48:49.946Z,650
2018-06-17T06:49:49.439Z,665
2018-06-17T06:50:49.659Z,535
2018-06-17T06:51:49.656Z,420
2018-06-17T06:52:49.114Z,350
2018-06-17T06:53:49.089Z,195
2018-06-17T06:54:49.652Z,140
2018-06-17T06:55:49.592Z,120
2018-06-17T06:56:49.853Z,120
2018-06-17T06:57:49.310Z,120
2018-06-17T06:58:49.586Z,125
2018-06-17T06:59:49.351Z,130
2018-06-17T07:00:49.552Z,140
2018-06-17T07:01:49.548Z,160
2018-06-17T07:02:49.798Z,165
2018-06-17T07:03:48.987Z,165
2018-06-17T07:04:48.987Z,165
2018-06-17T07:05:48.706Z,165
2018-06-17T07:06:49.518Z,170
2018-06-17T07:07:49.688Z,175
2018-06-17T07:08:49.470Z,180
2018-06-17T07:09:49.193Z,185
2018-06-17T07:10:49.191Z,190
2018-06-17T07:11:49.449Z,200
2018-06-17T07:12:49.162Z,255
2018-06-17T07:13:48.885Z,460
2018-06-17T07:14:49.209Z,660
2018-06-17T07:15:49.145Z,1010
2018-06-17T07:16:49.258Z,1070
2018-06-17T07:17:49.366Z,1085
2018-06-17T07:18:49.381Z,990
2018-06-17T07:19:49.143Z,995
2018-06-17T07:20:49.091Z,915
2018-06-17T07:21:49.341Z,850
2018-06-17T07:22:49.066Z,840
2018-06-17T07:23:48.792Z,700
2018-06-17T07:24:49.054Z,660
2018-06-17T07:25:49.302Z,630
2018-06-17T07:26:49.080Z,675
2018-06-17T07:27:49.292Z,735
2018-06-17T07:28:49.026Z,810
2018-06-17T07:29:49.284Z,855
2018-06-17T07:30:49.532Z,795
2018-06-17T07:31:48.738Z,750
2018-06-17T07:32:49.136Z,650
2018-06-17T07:33:49.252Z,630
2018-06-17T07:34:49.236Z,605
2018-06-17T07:35:48.454Z,650
2018-06-17T07:36:49.227Z,695
2018-06-17T07:37:49.226Z,690
2018-06-17T07:38:49.214Z,375
2018-06-17T07:39:48.944Z,545
2018-06-17T07:40:49.193Z,455
2018-06-17T07:41:49.464Z,265
2018-06-17T07:42:49.185Z,265
2018-06-17T07:43:49.280Z,465
2018-06-17T07:44:48.905Z,635
2018-06-17T07:45:49.419Z,245
2018-06-17T07:46:48.891Z,535
2018-06-17T07:47:48.623Z,370
2018-06-17T07:48:49.143Z,560
2018-06-17T07:49:48.865Z,520
2018-06-17T07:50:48.866Z,585
2018-06-17T07:51:49.122Z,420
2018-06-17T07:52:49.122Z,585
2018-06-17T07:53:49.113Z,790
2018-06-17T07:54:49.035Z,860
2018-06-17T07:55:49.019Z,750
2018-06-17T07:56:48.838Z,495
2018-06-17T07:57:48.543Z,855
2018-06-17T07:58:48.840Z,715
2018-06-17T07:59:49.125Z,765
2018-06-17T08:00:48.786Z,485
2018-06-17T08:01:48.789Z,685
2018-06-17T08:02:48.539Z,585
2018-06-17T08:03:48.504Z,405
2018-06-17T08:04:48.528Z,380
2018-06-17T08:05:48.494Z,580
2018-06-17T08:06:49.015Z,330
2018-06-17T08:07:48.735Z,340
2018-06-17T08:08:48.737Z,425
2018-06-17T08:09:48.721Z,460
2018-06-17T08:10:48.320Z,715
2018-06-17T08:11:48.457Z,480
2018-06-17T08:12:48.977Z,295
2018-06-17T08:13:48.995Z,245
2018-06-17T08:14:48.488Z,265
2018-06-17T08:15:49.223Z,280
2018-06-17T08:16:48.677Z,270
2018-06-17T08:17:48.672Z,275
2018-06-17T08:18:48.403Z,330
2018-06-17T08:19:49.194Z,400
2018-06-17T08:20:48.387Z,255
2018-06-17T08:21:48.393Z,245
2018-06-17T08:22:48.644Z,215
2018-06-17T08:23:48.898Z,240
2018-06-17T08:24:48.631Z,480
2018-06-17T08:25:48.886Z,305
2018-06-17T08:26:48.627Z,430
2018-06-17T08:27:48.917Z,500
2018-06-17T08:28:48.340Z,385
2018-06-17T08:29:48.884Z,365
2018-06-17T08:30:48.627Z,685
2018-06-17T08:31:49.196Z,395
2018-06-17T08:32:49.081Z,360
2018-06-17T08:33:48.610Z,295
2018-06-17T08:34:48.297Z,235
2018-06-17T08:35:48.859Z,190
2018-06-17T08:36:48.005Z,185
2018-06-17T08:37:48.793Z,200
2018-06-17T08:38:48.785Z,190
2018-06-17T08:39:48.790Z,195
2018-06-17T08:40:48.275Z,185
2018-06-17T08:41:49.030Z,230
2018-06-17T08:42:48.479Z,305
2018-06-17T08:43:48.675Z,385
2018-06-17T08:44:48.471Z,380
2018-06-17T08:45:48.185Z,565
2018-06-17T08:46:48.888Z,500
2018-06-17T08:47:48.722Z,375
2018-06-17T08:48:48.442Z,490
2018-06-17T08:49:48.947Z,410
2018-06-17T08:50:48.413Z,590
2018-06-17T08:51:48.494Z,515
2018-06-17T08:52:48.152Z,710
2018-06-17T08:53:48.402Z,720
2018-06-17T08:54:48.129Z,540
2018-06-17T08:55:48.651Z,570
2018-06-17T08:56:47.844Z,625
2018-06-17T08:57:48.137Z,840
2018-06-17T08:58:48.611Z,840
2018-06-17T08:59:48.611Z,780
2018-06-17T09:00:48.330Z,685
2018-06-17T09:01:48.596Z,700
2018-06-17T09:02:48.584Z,725
2018-06-17T09:03:48.326Z,765
2018-06-17T09:04:48.322Z,405
2018-06-17T09:05:48.827Z,295
2018-06-17T09:06:48.040Z,705
2018-06-17T09:07:48.552Z,530
2018-06-17T09:08:48.277Z,395
2018-06-17T09:09:48.812Z,410
2018-06-17T09:10:48.742Z,300
2018-06-17T09:11:48.545Z,360
2018-06-17T09:12:48.623Z,410
2018-06-17T09:13:48.247Z,480
2018-06-17T09:14:47.985Z,415
2018-06-17T09:15:48.264Z,415
2018-06-17T09:16:48.494Z,440
2018-06-17T09:17:48.752Z,480
2018-06-17T09:18:48.507Z,425
2018-06-17T09:19:48.479Z,450
2018-06-17T09:20:47.936Z,515
2018-06-17T09:21:48.190Z,475
2018-06-17T09:22:48.455Z,550
2018-06-17T09:23:48.439Z,565
2018-06-17T09:24:48.166Z,395
2018-06-17T09:25:48.429Z,290
2018-06-17T09:26:48.419Z,440
2018-06-17T09:27:48.153Z,420
2018-06-17T09:28:48.136Z,385
2018-06-17T09:29:48.406Z,260
2018-06-17T09:30:48.443Z,235
2018-06-17T09:31:48.630Z,225
2018-06-17T09:32:48.120Z,270
2018-06-17T09:33:48.387Z,230
2018-06-17T09:34:47.831Z,220
2018-06-17T09:35:48.356Z,210
2018-06-17T09:36:48.081Z,175
2018-06-17T09:37:47.809Z,165
2018-06-17T09:38:48.332Z,155
2018-06-17T09:39:48.342Z,145
2018-06-17T09:40:47.793Z,155
2018-06-17T09:41:47.778Z,150
2018-06-17T09:42:48.311Z,155
2018-06-17T09:43:48.026Z,170
2018-06-17T09:44:48.294Z,180
2018-06-17T09:45:48.018Z,260
2018-06-17T09:46:48.312Z,310
2018-06-17T09:47:47.996Z,335
2018-06-17T09:48:48.254Z,310
2018-06-17T09:49:47.992Z,170
2018-06-17T09:50:47.965Z,145
2018-06-17T09:51:48.488Z,195
2018-06-17T09:52:47.950Z,260
2018-06-17T09:53:47.950Z,205
2018-06-17T09:54:48.198Z,230
2018-06-17T09:55:47.664Z,290
2018-06-17T09:56:48.456Z,365
2018-06-17T09:57:48.453Z,415
2018-06-17T09:58:48.441Z,365
2018-06-17T09:59:48.426Z,290
2018-06-17T10:00:47.885Z,300
2018-06-17T10:01:48.210Z,325
2018-06-17T10:02:47.876Z,300
2018-06-17T10:03:48.386Z,215
2018-06-17T10:04:47.861Z,190
2018-06-17T10:05:47.841Z,225
2018-06-17T10:06:47.835Z,220
2018-06-17T10:07:48.354Z,250
2018-06-17T10:08:48.074Z,225
2018-06-17T10:09:47.809Z,210
2018-06-17T10:10:47.801Z,210
2018-06-17T10:11:47.783Z,255
2018-06-17T10:12:48.039Z,265
2018-06-17T10:13:47.769Z,265
2018-06-17T10:14:47.505Z,300
2018-06-17T10:15:48.021Z,330
2018-06-17T10:16:47.744Z,325
2018-06-17T10:17:47.474Z,360
2018-06-17T10:18:48.262Z,355
2018-06-17T10:19:47.451Z,310
2018-06-17T10:20:47.184Z,305
2018-06-17T10:21:47.803Z,320
2018-06-17T10:22:48.222Z,300
2018-06-17T10:23:48.245Z,285
2018-06-17T10:24:47.688Z,265
2018-06-17T10:25:47.677Z,270
2018-06-17T10:26:47.442Z,275
2018-06-17T10:27:47.916Z,245
2018-06-17T10:28:47.115Z,205
2018-06-17T10:29:47.631Z,190
2018-06-17T10:30:48.159Z,175
2018-06-17T10:31:47.353Z,185
2018-06-17T10:32:47.868Z,275
2018-06-17T10:33:47.333Z,320
2018-06-17T10:34:47.844Z,280
2018-06-17T10:35:47.321Z,225
2018-06-17T10:36:47.837Z,215
2018-06-17T10:37:47.832Z,235
2018-06-17T10:38:47.829Z,260
2018-06-17T10:39:47.547Z,315
2018-06-17T10:40:47.805Z,340
2018-06-17T10:41:46.994Z,300
2018-06-17T10:42:47.515Z,300
2018-06-17T10:43:47.243Z,270
2018-06-17T10:44:47.505Z,285
2018-06-17T10:45:47.495Z,305
2018-06-17T10:46:47.227Z,350
2018-06-17T10:47:47.207Z,420
2018-06-17T10:48:47.758Z,255
2018-06-17T10:49:47.736Z,185
2018-06-17T10:50:47.499Z,180
2018-06-17T10:51:47.702Z,215
2018-06-17T10:52:47.698Z,230
2018-06-17T10:53:47.684Z,210
2018-06-17T10:54:47.682Z,205
2018-06-17T10:55:47.287Z,220
2018-06-17T10:56:47.400Z,230
2018-06-17T10:57:47.397Z,215
2018-06-17T10:58:47.383Z,200
2018-06-17T10:59:47.640Z,205
2018-06-17T11:00:47.628Z,190
2018-06-17T11:01:47.620Z,200
2018-06-17T11:02:47.089Z,225
2018-06-17T11:03:47.071Z,195
2018-06-17T11:04:47.589Z,180
2018-06-17T11:05:47.553Z,180
2018-06-17T11:06:47.576Z,175
2018-06-17T11:07:47.831Z,170
2018-06-17T11:08:47.560Z,185
2018-06-17T11:09:47.817Z,195
2018-06-17T11:10:47.219Z,180
2018-06-17T11:11:47.011Z,155
2018-06-17T11:12:47.521Z,145
2018-06-17T11:13:47.258Z,135
2018-06-17T11:14:47.515Z,135
2018-06-17T11:15:47.509Z,170
2018-06-17T11:16:47.229Z,165
2018-06-17T11:17:47.222Z,170
2018-06-17T11:18:46.948Z,205
2018-06-17T11:19:47.954Z,200
2018-06-17T11:20:47.461Z,220
2018-06-17T11:21:47.179Z,220
2018-06-17T11:22:46.914Z,260
2018-06-17T11:23:47.713Z,200
2018-06-17T11:24:47.156Z,200
2018-06-17T11:25:47.412Z,235
2018-06-17T11:26:47.480Z,240
2018-06-17T11:27:47.401Z,225
2018-06-17T11:28:46.862Z,235
2018-06-17T11:29:47.098Z,235
2018-06-17T11:30:47.653Z,240
2018-06-17T11:31:47.091Z,235
2018-06-17T11:32:47.348Z,245
2018-06-17T11:33:47.091Z,250
2018-06-17T11:34:46.800Z,265
2018-06-17T11:35:47.064Z,280
2018-06-17T11:36:46.775Z,290
2018-06-17T11:37:47.310Z,300
2018-06-17T11:38:47.117Z,305
2018-06-17T11:39:47.304Z,305
2018-06-17T11:40:47.020Z,280
2018-06-17T11:41:47.264Z,305
2018-06-17T11:42:47.536Z,415
2018-06-17T11:43:46.722Z,255
2018-06-17T11:44:46.804Z,210
2018-06-17T11:45:46.966Z,190
2018-06-17T11:46:46.959Z,180
2018-06-17T11:47:46.981Z,175
2018-06-17T11:48:47.480Z,185
2018-06-17T11:49:46.689Z,215
2018-06-17T11:50:46.662Z,225
2018-06-17T11:51:47.205Z,210
2018-06-17T11:52:46.921Z,205
2018-06-17T11:53:46.898Z,220
2018-06-17T11:54:46.628Z,240
2018-06-17T11:55:46.628Z,235
2018-06-17T11:56:47.154Z,215
2018-06-17T11:57:46.904Z,245
2018-06-17T11:58:46.674Z,235
2018-06-17T11:59:47.595Z,220
2018-06-17T12:00:46.848Z,225
2018-06-17T12:01:46.842Z,275
2018-06-17T12:02:46.832Z,315
2018-06-17T12:03:47.369Z,330
2018-06-17T12:04:46.543Z,330
2018-06-17T12:05:46.804Z,285
2018-06-17T12:06:46.825Z,260
2018-06-17T12:07:47.101Z,230
2018-06-17T12:08:46.778Z,210
2018-06-17T12:09:47.321Z,220
2018-06-17T12:10:47.045Z,225
2018-06-17T12:11:46.506Z,175
2018-06-17T12:12:47.009Z,140
2018-06-17T12:13:47.011Z,120
2018-06-17T12:14:46.847Z,125
2018-06-17T12:15:46.983Z,120
2018-06-17T12:16:46.721Z,135
2018-06-17T12:17:47.221Z,165
2018-06-17T12:18:46.966Z,190
2018-06-17T12:19:47.210Z,220
2018-06-17T12:20:46.737Z,220
2018-06-17T12:21:46.940Z,215
2018-06-17T12:22:46.662Z,215
2018-06-17T12:23:46.646Z,230
2018-06-17T12:24:46.907Z,260
2018-06-17T12:25:46.906Z,300
2018-06-17T12:26:46.727Z,305
2018-06-17T12:27:46.654Z,300
2018-06-17T12:28:46.655Z,280
2018-06-17T12:29:46.395Z,275
2018-06-17T12:30:46.860Z,270
2018-06-17T12:31:46.582Z,260
2018-06-17T12:32:47.138Z,270
2018-06-17T12:33:46.578Z,255
2018-06-17T12:34:46.922Z,240
2018-06-17T12:35:46.816Z,240
2018-06-17T12:36:46.284Z,225
2018-06-17T12:37:46.544Z,215
2018-06-17T12:38:47.065Z,210
2018-06-17T12:39:46.793Z,200
2018-06-17T12:40:47.218Z,195
2018-06-17T12:41:46.760Z,190
2018-06-17T12:42:46.552Z,185
2018-06-17T12:43:46.479Z,175
2018-06-17T12:44:46.733Z,175
2018-06-17T12:45:46.731Z,180
2018-06-17T12:46:46.453Z,180
2018-06-17T12:47:46.189Z,185
2018-06-17T12:48:46.431Z,185
2018-06-17T12:49:46.701Z,190
2018-06-17T12:50:46.157Z,195
2018-06-17T12:51:46.408Z,195
2018-06-17T12:52:46.664Z,190
2018-06-17T12:53:46.388Z,190
2018-06-17T12:54:46.114Z,190
2018-06-17T12:55:46.107Z,190
2018-06-17T12:56:46.628Z,190
2018-06-17T12:57:46.789Z,185
2018-06-17T12:58:46.348Z,180
2018-06-17T12:59:46.087Z,175
2018-06-17T13:00:46.344Z,175
2018-06-17T13:01:46.319Z,175
2018-06-17T13:02:46.583Z,175
2018-06-17T13:03:46.316Z,180
2018-06-17T13:04:46.760Z,185
2018-06-17T13:05:46.814Z,185
2018-06-17T13:06:46.277Z,195
2018-06-17T13:07:45.992Z,195
2018-06-17T13:08:46.261Z,195
2018-06-17T13:09:46.515Z,205
2018-06-17T13:10:46.697Z,210
2018-06-17T13:11:46.220Z,230
2018-06-17T13:12:46.209Z,240
2018-06-17T13:13:46.478Z,265
2018-06-17T13:14:46.467Z,285
2018-06-17T13:15:46.452Z,315
2018-06-17T13:16:46.184Z,345
2018-06-17T13:17:45.648Z,370
2018-06-17T13:18:46.687Z,385
2018-06-17T13:19:46.152Z,375
2018-06-17T13:20:46.406Z,385
2018-06-17T13:21:46.415Z,395
2018-06-17T13:22:45.601Z,425
2018-06-17T13:23:46.655Z,445
2018-06-17T13:24:46.376Z,470
2018-06-17T13:25:46.137Z,510
2018-06-17T13:26:46.626Z,540
2018-06-17T13:27:46.352Z,520
2018-06-17T13:28:46.404Z,505
2018-06-17T13:29:46.352Z,490
2018-06-17T13:30:46.085Z,490
2018-06-17T13:31:46.324Z,530
2018-06-17T13:32:46.311Z,565
2018-06-17T13:33:46.360Z,435
2018-06-17T13:34:45.769Z,580
2018-06-17T13:35:46.290Z,625
2018-06-17T13:36:46.548Z,555
2018-06-17T13:37:45.760Z,420
2018-06-17T13:38:46.272Z,555
2018-06-17T13:39:46.274Z,1045
2018-06-17T13:40:45.993Z,1515
2018-06-17T13:41:45.994Z,1685
2018-06-17T13:42:46.621Z,1450
2018-06-17T13:43:46.237Z,1260
2018-06-17T13:44:45.701Z,1090
2018-06-17T13:45:46.223Z,1325
2018-06-17T13:46:45.949Z,1210
2018-06-17T13:47:46.487Z,1050
2018-06-17T13:48:46.208Z,650
2018-06-17T13:49:46.201Z,645
2018-06-17T13:50:46.197Z,585
2018-06-17T13:51:46.200Z,745
2018-06-17T13:52:46.190Z,605
2018-06-17T13:53:46.196Z,675
2018-06-17T13:54:46.450Z,740
2018-06-17T13:55:45.917Z,750
2018-06-17T13:56:46.179Z,605
2018-06-17T13:57:46.444Z,750
2018-06-17T13:58:45.904Z,725
2018-06-17T13:59:45.913Z,625
2018-06-17T14:00:46.156Z,705
2018-06-17T14:01:45.886Z,995
2018-06-17T14:02:46.178Z,1130
2018-06-17T14:03:45.870Z,910
2018-06-17T14:04:46.407Z,790
2018-06-17T14:05:46.411Z,760